sensor_id;sensor_type;location;lat;lon;timestamp;temperature;humidity
19586;DHT22;9939;49.246;9.106;2023-04-24T00:02:37;11.60;99.90
19586;DHT22;9939;49.246;9.106;2023-04-24T00:05:25;11.70;99.90
19586;DHT22;9939;49.246;9.106;2023-04-24T00:08:13;11.70;99.90
19586;DHT22;9939;49.246;9.106;2023-04-24T00:11:00;11.40;99.90
19586;DHT22;9939;49.246;9.106;2023-04-24T00:13:47;11.50;99.90
19586;DHT22;9939;49.246;9.106;2023-04-24T00:16:35;11.30;99.90
19586;DHT22;9939;49.246;9.106;2023-04-24T00:19:22;11.30;99.90
19586;DHT22;9939;49.246;9.106;2023-04-24T00:22:10;11.30;99.90
19586;DHT22;9939;49.246;9.106;2023-04-24T00:24:57;11.20;99.90
19586;DHT22;9939;49.246;9.106;2023-04-24T00:27:45;11.30;99.90
19586;DHT22;9939;49.246;9.106;2023-04-24T00:30:32;11.30;99.90
19586;DHT22;9939;49.246;9.106;2023-04-24T00:33:19;11.30;99.90
19586;DHT22;9939;49.246;9.106;2023-04-24T00:36:07;11.40;99.90
19586;DHT22;9939;49.246;9.106;2023-04-24T00:38:54;11.40;99.90
19586;DHT22;9939;49.246;9.106;2023-04-24T00:41:43;11.40;99.90
19586;DHT22;9939;49.246;9.106;2023-04-24T00:44:30;11.50;99.90
19586;DHT22;9939;49.246;9.106;2023-04-24T00:47:17;11.40;99.90
19586;DHT22;9939;49.246;9.106;2023-04-24T00:50:06;11.50;99.90
19586;DHT22;9939;49.246;9.106;2023-04-24T00:52:54;11.60;99.90
19586;DHT22;9939;49.246;9.106;2023-04-24T00:55:41;11.60;99.90
19586;DHT22;9939;49.246;9.106;2023-04-24T00:58:29;11.70;99.90
19586;DHT22;9939;49.246;9.106;2023-04-24T01:01:20;11.50;99.90
19586;DHT22;9939;49.246;9.106;2023-04-24T01:04:09;11.60;99.90
19586;DHT22;9939;49.246;9.106;2023-04-24T01:06:58;11.40;99.90
19586;DHT22;9939;49.246;9.106;2023-04-24T01:09:45;11.30;99.90
19586;DHT22;9939;49.246;9.106;2023-04-24T01:12:35;11.50;99.90
19586;DHT22;9939;49.246;9.106;2023-04-24T01:15:22;11.40;99.90
19586;DHT22;9939;49.246;9.106;2023-04-24T01:18:10;11.50;99.90
19586;DHT22;9939;49.246;9.106;2023-04-24T01:20:58;11.40;99.90
19586;DHT22;9939;49.246;9.106;2023-04-24T01:23:46;11.40;99.90
19586;DHT22;9939;49.246;9.106;2023-04-24T01:26:33;11.40;99.90
19586;DHT22;9939;49.246;9.106;2023-04-24T01:29:20;11.40;99.90
19586;DHT22;9939;49.246;9.106;2023-04-24T01:32:08;11.30;99.90
19586;DHT22;9939;49.246;9.106;2023-04-24T01:34:55;11.20;99.90
19586;DHT22;9939;49.246;9.106;2023-04-24T01:37:43;11.20;99.90
19586;DHT22;9939;49.246;9.106;2023-04-24T01:40:31;11.10;99.90
19586;DHT22;9939;49.246;9.106;2023-04-24T01:43:18;11.30;99.90
19586;DHT22;9939;49.246;9.106;2023-04-24T01:46:06;11.40;99.90
19586;DHT22;9939;49.246;9.106;2023-04-24T01:48:55;11.40;99.90
19586;DHT22;9939;49.246;9.106;2023-04-24T01:51:43;11.60;99.90
19586;DHT22;9939;49.246;9.106;2023-04-24T01:54:30;11.60;99.90
19586;DHT22;9939;49.246;9.106;2023-04-24T01:57:17;11.60;99.90
19586;DHT22;9939;49.246;9.106;2023-04-24T02:00:05;11.60;99.90
19586;DHT22;9939;49.246;9.106;2023-04-24T02:03:00;11.50;99.90
19586;DHT22;9939;49.246;9.106;2023-04-24T02:05:49;11.60;99.90
19586;DHT22;9939;49.246;9.106;2023-04-24T02:08:36;11.30;99.90
19586;DHT22;9939;49.246;9.106;2023-04-24T02:11:24;11.40;99.90
19586;DHT22;9939;49.246;9.106;2023-04-24T02:14:12;11.30;99.90
19586;DHT22;9939;49.246;9.106;2023-04-24T02:16:59;11.30;99.90
19586;DHT22;9939;49.246;9.106;2023-04-24T02:19:48;11.30;99.90
19586;DHT22;9939;49.246;9.106;2023-04-24T02:22:36;11.30;99.90
19586;DHT22;9939;49.246;9.106;2023-04-24T02:25:23;11.30;99.90
19586;DHT22;9939;49.246;9.106;2023-04-24T02:28:15;11.40;99.90
19586;DHT22;9939;49.246;9.106;2023-04-24T02:31:02;11.30;99.90
19586;DHT22;9939;49.246;9.106;2023-04-24T02:33:50;11.40;99.90
19586;DHT22;9939;49.246;9.106;2023-04-24T02:36:37;11.40;99.90
19586;DHT22;9939;49.246;9.106;2023-04-24T02:39:24;11.40;99.90
19586;DHT22;9939;49.246;9.106;2023-04-24T02:42:12;11.40;99.90
19586;DHT22;9939;49.246;9.106;2023-04-24T02:44:59;10.50;99.90
19586;DHT22;9939;49.246;9.106;2023-04-24T02:47:46;11.10;99.90
19586;DHT22;9939;49.246;9.106;2023-04-24T02:50:34;11.00;99.90
19586;DHT22;9939;49.246;9.106;2023-04-24T02:53:21;11.00;99.90
19586;DHT22;9939;49.246;9.106;2023-04-24T02:56:09;10.80;99.90
19586;DHT22;9939;49.246;9.106;2023-04-24T02:58:59;10.80;99.90
19586;DHT22;9939;49.246;9.106;2023-04-24T03:01:47;12.50;99.90
19586;DHT22;9939;49.246;9.106;2023-04-24T03:04:34;10.90;99.90
19586;DHT22;9939;49.246;9.106;2023-04-24T03:07:22;10.90;99.90
19586;DHT22;9939;49.246;9.106;2023-04-24T03:10:11;11.10;99.90
19586;DHT22;9939;49.246;9.106;2023-04-24T03:12:58;11.00;99.90
19586;DHT22;9939;49.246;9.106;2023-04-24T03:15:45;11.00;99.90
19586;DHT22;9939;49.246;9.106;2023-04-24T03:18:34;10.70;99.90
19586;DHT22;9939;49.246;9.106;2023-04-24T03:21:22;11.00;99.90
19586;DHT22;9939;49.246;9.106;2023-04-24T03:24:10;11.00;99.90
19586;DHT22;9939;49.246;9.106;2023-04-24T03:26:57;11.00;99.90
19586;DHT22;9939;49.246;9.106;2023-04-24T03:30:05;10.90;99.90
19586;DHT22;9939;49.246;9.106;2023-04-24T03:33:01;10.90;99.90
19586;DHT22;9939;49.246;9.106;2023-04-24T03:35:53;11.00;99.90
19586;DHT22;9939;49.246;9.106;2023-04-24T03:38:41;11.00;99.90
19586;DHT22;9939;49.246;9.106;2023-04-24T03:41:47;11.10;99.90
19586;DHT22;9939;49.246;9.106;2023-04-24T03:44:40;11.10;99.90
19586;DHT22;9939;49.246;9.106;2023-04-24T03:47:28;11.00;99.90
19586;DHT22;9939;49.246;9.106;2023-04-24T03:50:20;11.00;99.90
19586;DHT22;9939;49.246;9.106;2023-04-24T03:53:07;10.90;99.90
19586;DHT22;9939;49.246;9.106;2023-04-24T03:55:59;10.70;99.90
19586;DHT22;9939;49.246;9.106;2023-04-24T03:58:46;10.50;99.90
19586;DHT22;9939;49.246;9.106;2023-04-24T04:01:34;9.20;99.90
19586;DHT22;9939;49.246;9.106;2023-04-24T04:04:33;10.10;99.90
19586;DHT22;9939;49.246;9.106;2023-04-24T04:07:21;10.00;99.90
19586;DHT22;9939;49.246;9.106;2023-04-24T04:10:09;10.10;99.90
19586;DHT22;9939;49.246;9.106;2023-04-24T04:12:57;9.80;99.90
19586;DHT22;9939;49.246;9.106;2023-04-24T04:15:44;9.80;99.90
19586;DHT22;9939;49.246;9.106;2023-04-24T04:18:32;9.60;99.90
19586;DHT22;9939;49.246;9.106;2023-04-24T04:21:21;9.40;99.90
19586;DHT22;9939;49.246;9.106;2023-04-24T04:24:13;9.30;99.90
19586;DHT22;9939;49.246;9.106;2023-04-24T04:27:05;9.20;99.90
19586;DHT22;9939;49.246;9.106;2023-04-24T04:30:01;9.10;99.90
19586;DHT22;9939;49.246;9.106;2023-04-24T04:32:59;9.10;99.90
19586;DHT22;9939;49.246;9.106;2023-04-24T04:35:47;9.20;99.90
19586;DHT22;9939;49.246;9.106;2023-04-24T04:38:39;9.00;99.90
19586;DHT22;9939;49.246;9.106;2023-04-24T04:41:41;9.10;99.90
19586;DHT22;9939;49.246;9.106;2023-04-24T04:44:30;8.90;99.90
19586;DHT22;9939;49.246;9.106;2023-04-24T04:47:20;8.80;99.90
19586;DHT22;9939;49.246;9.106;2023-04-24T04:50:10;8.80;99.90
19586;DHT22;9939;49.246;9.106;2023-04-24T04:52:58;8.70;99.90
19586;DHT22;9939;49.246;9.106;2023-04-24T04:55:51;8.50;99.90
19586;DHT22;9939;49.246;9.106;2023-04-24T04:58:41;8.60;99.90
19586;DHT22;9939;49.246;9.106;2023-04-24T05:01:32;8.50;99.90
19586;DHT22;9939;49.246;9.106;2023-04-24T05:04:19;8.50;99.90
19586;DHT22;9939;49.246;9.106;2023-04-24T05:07:08;8.50;99.90
19586;DHT22;9939;49.246;9.106;2023-04-24T05:09:59;8.50;99.90
19586;DHT22;9939;49.246;9.106;2023-04-24T05:12:46;8.50;99.90
19586;DHT22;9939;49.246;9.106;2023-04-24T05:15:34;8.30;99.90
19586;DHT22;9939;49.246;9.106;2023-04-24T05:18:22;8.20;99.90
19586;DHT22;9939;49.246;9.106;2023-04-24T05:21:10;8.30;99.90
19586;DHT22;9939;49.246;9.106;2023-04-24T05:24:00;8.30;99.90
19586;DHT22;9939;49.246;9.106;2023-04-24T05:27:07;8.20;99.90
19586;DHT22;9939;49.246;9.106;2023-04-24T05:29:59;8.20;99.90
19586;DHT22;9939;49.246;9.106;2023-04-24T05:32:46;8.40;99.90
19586;DHT22;9939;49.246;9.106;2023-04-24T05:35:34;8.60;99.90
19586;DHT22;9939;49.246;9.106;2023-04-24T05:38:22;8.60;99.90
19586;DHT22;9939;49.246;9.106;2023-04-24T05:41:10;8.70;99.90
19586;DHT22;9939;49.246;9.106;2023-04-24T05:43:57;8.90;99.90
19586;DHT22;9939;49.246;9.106;2023-04-24T05:46:46;9.10;99.90
19586;DHT22;9939;49.246;9.106;2023-04-24T05:49:34;9.40;99.90
19586;DHT22;9939;49.246;9.106;2023-04-24T05:52:22;9.50;99.90
19586;DHT22;9939;49.246;9.106;2023-04-24T05:55:10;9.80;99.90
19586;DHT22;9939;49.246;9.106;2023-04-24T05:57:59;10.00;99.90
19586;DHT22;9939;49.246;9.106;2023-04-24T06:00:47;10.10;99.90
19586;DHT22;9939;49.246;9.106;2023-04-24T06:03:35;10.20;99.90
19586;DHT22;9939;49.246;9.106;2023-04-24T06:06:23;10.40;99.90
19586;DHT22;9939;49.246;9.106;2023-04-24T06:09:11;10.60;99.90
19586;DHT22;9939;49.246;9.106;2023-04-24T06:11:59;10.70;99.90
19586;DHT22;9939;49.246;9.106;2023-04-24T06:14:58;9.50;99.90
19586;DHT22;9939;49.246;9.106;2023-04-24T06:18:04;11.20;99.90
19586;DHT22;9939;49.246;9.106;2023-04-24T06:20:52;11.10;99.90
19586;DHT22;9939;49.246;9.106;2023-04-24T06:23:39;11.40;99.90
19586;DHT22;9939;49.246;9.106;2023-04-24T06:26:28;11.60;99.90
19586;DHT22;9939;49.246;9.106;2023-04-24T06:29:15;10.60;99.90
19586;DHT22;9939;49.246;9.106;2023-04-24T06:32:03;11.70;99.90
19586;DHT22;9939;49.246;9.106;2023-04-24T06:34:52;12.10;99.90
19586;DHT22;9939;49.246;9.106;2023-04-24T06:37:40;12.10;99.90
19586;DHT22;9939;49.246;9.106;2023-04-24T06:40:28;11.90;99.90
19586;DHT22;9939;49.246;9.106;2023-04-24T06:43:16;11.80;99.90
19586;DHT22;9939;49.246;9.106;2023-04-24T06:46:03;11.80;99.90
19586;DHT22;9939;49.246;9.106;2023-04-24T06:48:51;11.50;99.90
19586;DHT22;9939;49.246;9.106;2023-04-24T06:51:38;12.00;99.90
19586;DHT22;9939;49.246;9.106;2023-04-24T06:54:25;12.20;99.90
19586;DHT22;9939;49.246;9.106;2023-04-24T06:57:13;12.30;99.90
19586;DHT22;9939;49.246;9.106;2023-04-24T07:00:00;12.40;99.90
19586;DHT22;9939;49.246;9.106;2023-04-24T07:02:47;12.50;99.90
19586;DHT22;9939;49.246;9.106;2023-04-24T07:05:35;12.00;99.90
19586;DHT22;9939;49.246;9.106;2023-04-24T07:08:25;11.10;99.90
19586;DHT22;9939;49.246;9.106;2023-04-24T07:11:12;11.70;99.90
19586;DHT22;9939;49.246;9.106;2023-04-24T07:13:59;11.60;99.90
19586;DHT22;9939;49.246;9.106;2023-04-24T07:16:47;12.10;99.90
19586;DHT22;9939;49.246;9.106;2023-04-24T07:19:34;11.90;99.90
19586;DHT22;9939;49.246;9.106;2023-04-24T07:22:25;12.10;99.90
19586;DHT22;9939;49.246;9.106;2023-04-24T07:25:12;12.60;99.90
19586;DHT22;9939;49.246;9.106;2023-04-24T07:27:59;12.60;99.90
19586;DHT22;9939;49.246;9.106;2023-04-24T07:30:47;12.20;99.90
19586;DHT22;9939;49.246;9.106;2023-04-24T07:33:34;12.20;99.90
19586;DHT22;9939;49.246;9.106;2023-04-24T07:36:23;12.00;99.90
19586;DHT22;9939;49.246;9.106;2023-04-24T07:39:11;13.20;99.90
19586;DHT22;9939;49.246;9.106;2023-04-24T07:41:58;11.80;99.90
19586;DHT22;9939;49.246;9.106;2023-04-24T07:44:46;12.00;99.90
19586;DHT22;9939;49.246;9.106;2023-04-24T07:47:34;12.50;99.90
19586;DHT22;9939;49.246;9.106;2023-04-24T07:50:23;12.30;99.90
19586;DHT22;9939;49.246;9.106;2023-04-24T07:53:12;12.30;99.90
19586;DHT22;9939;49.246;9.106;2023-04-24T07:55:59;12.80;99.90
19586;DHT22;9939;49.246;9.106;2023-04-24T07:58:47;12.90;99.90
19586;DHT22;9939;49.246;9.106;2023-04-24T08:01:36;12.60;99.90
19586;DHT22;9939;49.246;9.106;2023-04-24T08:04:23;12.20;99.90
19586;DHT22;9939;49.246;9.106;2023-04-24T08:07:11;12.20;99.90
19586;DHT22;9939;49.246;9.106;2023-04-24T08:10:00;12.40;99.90
19586;DHT22;9939;49.246;9.106;2023-04-24T08:12:47;12.40;99.90
19586;DHT22;9939;49.246;9.106;2023-04-24T08:15:35;12.20;99.90
19586;DHT22;9939;49.246;9.106;2023-04-24T08:18:22;11.70;99.90
19586;DHT22;9939;49.246;9.106;2023-04-24T08:21:09;11.20;99.90
19586;DHT22;9939;49.246;9.106;2023-04-24T08:23:58;11.00;99.90
19586;DHT22;9939;49.246;9.106;2023-04-24T08:26:45;10.80;99.90
19586;DHT22;9939;49.246;9.106;2023-04-24T08:29:32;10.00;99.90
19586;DHT22;9939;49.246;9.106;2023-04-24T08:32:20;11.00;99.90
19586;DHT22;9939;49.246;9.106;2023-04-24T08:35:07;11.20;99.90
19586;DHT22;9939;49.246;9.106;2023-04-24T08:37:58;11.10;99.90
19586;DHT22;9939;49.246;9.106;2023-04-24T08:40:47;10.80;99.90
19586;DHT22;9939;49.246;9.106;2023-04-24T08:43:36;10.90;99.90
19586;DHT22;9939;49.246;9.106;2023-04-24T08:46:24;11.30;99.90
19586;DHT22;9939;49.246;9.106;2023-04-24T08:49:12;11.60;99.90
19586;DHT22;9939;49.246;9.106;2023-04-24T08:52:00;11.90;99.90
19586;DHT22;9939;49.246;9.106;2023-04-24T08:54:48;12.80;99.90
19586;DHT22;9939;49.246;9.106;2023-04-24T08:57:36;13.50;99.90
19586;DHT22;9939;49.246;9.106;2023-04-24T09:00:26;14.40;99.90
19586;DHT22;9939;49.246;9.106;2023-04-24T09:03:15;15.00;99.90
19586;DHT22;9939;49.246;9.106;2023-04-24T09:06:03;15.30;99.90
19586;DHT22;9939;49.246;9.106;2023-04-24T09:08:51;15.40;99.90
19586;DHT22;9939;49.246;9.106;2023-04-24T09:11:41;14.70;99.90
19586;DHT22;9939;49.246;9.106;2023-04-24T09:14:28;14.00;99.90
19586;DHT22;9939;49.246;9.106;2023-04-24T09:17:18;13.60;99.90
19586;DHT22;9939;49.246;9.106;2023-04-24T09:20:05;14.90;99.90
19586;DHT22;9939;49.246;9.106;2023-04-24T09:22:53;14.30;99.90
19586;DHT22;9939;49.246;9.106;2023-04-24T09:25:41;13.50;99.90
19586;DHT22;9939;49.246;9.106;2023-04-24T09:28:35;13.90;99.90
19586;DHT22;9939;49.246;9.106;2023-04-24T09:31:23;12.60;99.90
19586;DHT22;9939;49.246;9.106;2023-04-24T09:34:11;12.30;99.90
19586;DHT22;9939;49.246;9.106;2023-04-24T09:36:59;12.40;99.90
19586;DHT22;9939;49.246;9.106;2023-04-24T09:40:06;13.00;99.90
19586;DHT22;9939;49.246;9.106;2023-04-24T09:42:55;13.70;99.90
19586;DHT22;9939;49.246;9.106;2023-04-24T09:45:43;15.50;99.90
19586;DHT22;9939;49.246;9.106;2023-04-24T09:48:34;17.10;99.90
19586;DHT22;9939;49.246;9.106;2023-04-24T09:51:33;17.50;99.90
19586;DHT22;9939;49.246;9.106;2023-04-24T09:54:22;17.60;99.90
19586;DHT22;9939;49.246;9.106;2023-04-24T09:57:09;15.10;99.90
19586;DHT22;9939;49.246;9.106;2023-04-24T09:59:57;14.00;99.90
19586;DHT22;9939;49.246;9.106;2023-04-24T10:02:44;12.90;99.90
19586;DHT22;9939;49.246;9.106;2023-04-24T10:05:32;12.60;99.90
19586;DHT22;9939;49.246;9.106;2023-04-24T10:08:20;12.70;99.90
19586;DHT22;9939;49.246;9.106;2023-04-24T10:11:07;12.60;99.90
19586;DHT22;9939;49.246;9.106;2023-04-24T10:13:55;12.70;99.90
19586;DHT22;9939;49.246;9.106;2023-04-24T10:16:44;13.30;99.90
19586;DHT22;9939;49.246;9.106;2023-04-24T10:19:33;14.30;99.90
19586;DHT22;9939;49.246;9.106;2023-04-24T10:22:22;13.40;99.90
19586;DHT22;9939;49.246;9.106;2023-04-24T10:25:10;12.80;99.90
19586;DHT22;9939;49.246;9.106;2023-04-24T10:27:58;11.30;99.90
19586;DHT22;9939;49.246;9.106;2023-04-24T10:30:49;12.60;99.90
19586;DHT22;9939;49.246;9.106;2023-04-24T10:33:37;13.00;99.90
19586;DHT22;9939;49.246;9.106;2023-04-24T10:36:25;13.50;99.90
19586;DHT22;9939;49.246;9.106;2023-04-24T10:39:14;14.50;99.90
19586;DHT22;9939;49.246;9.106;2023-04-24T10:42:13;16.80;99.90
19586;DHT22;9939;49.246;9.106;2023-04-24T10:45:05;18.50;99.90
19586;DHT22;9939;49.246;9.106;2023-04-24T10:48:01;18.70;99.90
19586;DHT22;9939;49.246;9.106;2023-04-24T10:50:52;18.40;99.90
19586;DHT22;9939;49.246;9.106;2023-04-24T10:53:40;16.60;99.90
19586;DHT22;9939;49.246;9.106;2023-04-24T10:56:27;15.80;99.90
19586;DHT22;9939;49.246;9.106;2023-04-24T10:59:23;15.30;99.90
19586;DHT22;9939;49.246;9.106;2023-04-24T11:02:11;15.30;99.90
19586;DHT22;9939;49.246;9.106;2023-04-24T11:05:03;14.90;99.90
19586;DHT22;9939;49.246;9.106;2023-04-24T11:16:45;11.90;99.90
19586;DHT22;9939;49.246;9.106;2023-04-24T11:19:33;12.20;99.90
19586;DHT22;9939;49.246;9.106;2023-04-24T11:22:20;11.50;99.90
19586;DHT22;9939;49.246;9.106;2023-04-24T11:25:10;11.20;99.90
19586;DHT22;9939;49.246;9.106;2023-04-24T11:28:05;11.40;99.90
19586;DHT22;9939;49.246;9.106;2023-04-24T11:30:53;11.90;99.90
19586;DHT22;9939;49.246;9.106;2023-04-24T11:33:41;13.10;99.90
19586;DHT22;9939;49.246;9.106;2023-04-24T11:36:28;14.70;99.90
19586;DHT22;9939;49.246;9.106;2023-04-24T11:39:18;16.10;99.90
19586;DHT22;9939;49.246;9.106;2023-04-24T11:42:05;17.90;99.90
19586;DHT22;9939;49.246;9.106;2023-04-24T11:44:55;18.20;99.90
19586;DHT22;9939;49.246;9.106;2023-04-24T11:47:43;17.20;99.90
19586;DHT22;9939;49.246;9.106;2023-04-24T11:50:31;16.50;99.90
19586;DHT22;9939;49.246;9.106;2023-04-24T11:53:19;17.10;99.90
19586;DHT22;9939;49.246;9.106;2023-04-24T11:56:08;18.00;99.90
19586;DHT22;9939;49.246;9.106;2023-04-24T11:58:56;18.60;99.90
19586;DHT22;9939;49.246;9.106;2023-04-24T12:01:46;17.30;99.90
19586;DHT22;9939;49.246;9.106;2023-04-24T12:04:40;17.20;99.90
19586;DHT22;9939;49.246;9.106;2023-04-24T12:07:28;17.10;99.90
19586;DHT22;9939;49.246;9.106;2023-04-24T12:10:20;14.90;99.90
19586;DHT22;9939;49.246;9.106;2023-04-24T12:13:08;14.60;99.90
19586;DHT22;9939;49.246;9.106;2023-04-24T12:15:56;12.60;99.90
19586;DHT22;9939;49.246;9.106;2023-04-24T12:18:44;14.00;99.90
19586;DHT22;9939;49.246;9.106;2023-04-24T12:21:33;14.20;99.90
19586;DHT22;9939;49.246;9.106;2023-04-24T12:24:20;14.10;99.90
19586;DHT22;9939;49.246;9.106;2023-04-24T12:27:07;14.00;99.90
19586;DHT22;9939;49.246;9.106;2023-04-24T12:30:09;14.40;99.90
19586;DHT22;9939;49.246;9.106;2023-04-24T12:32:58;16.50;99.90
19586;DHT22;9939;49.246;9.106;2023-04-24T12:35:47;18.30;99.90
19586;DHT22;9939;49.246;9.106;2023-04-24T12:38:35;20.10;99.90
19586;DHT22;9939;49.246;9.106;2023-04-24T12:41:27;18.10;99.90
19586;DHT22;9939;49.246;9.106;2023-04-24T12:44:17;18.00;99.90
19586;DHT22;9939;49.246;9.106;2023-04-24T12:47:05;15.60;99.90
19586;DHT22;9939;49.246;9.106;2023-04-24T12:49:53;15.50;99.90
19586;DHT22;9939;49.246;9.106;2023-04-24T12:52:42;16.10;99.90
19586;DHT22;9939;49.246;9.106;2023-04-24T12:55:30;16.90;99.90
19586;DHT22;9939;49.246;9.106;2023-04-24T12:58:20;18.50;99.90
19586;DHT22;9939;49.246;9.106;2023-04-24T13:01:07;19.90;99.90
19586;DHT22;9939;49.246;9.106;2023-04-24T13:03:55;21.50;99.90
19586;DHT22;9939;49.246;9.106;2023-04-24T13:06:43;21.20;99.90
19586;DHT22;9939;49.246;9.106;2023-04-24T13:09:30;18.70;99.90
19586;DHT22;9939;49.246;9.106;2023-04-24T13:12:18;16.70;99.90
19586;DHT22;9939;49.246;9.106;2023-04-24T13:15:06;15.80;99.90
19586;DHT22;9939;49.246;9.106;2023-04-24T13:17:53;15.20;99.90
19586;DHT22;9939;49.246;9.106;2023-04-24T13:20:41;15.30;99.90
19586;DHT22;9939;49.246;9.106;2023-04-24T13:23:28;15.00;99.90
19586;DHT22;9939;49.246;9.106;2023-04-24T13:26:16;14.70;99.90
19586;DHT22;9939;49.246;9.106;2023-04-24T13:29:03;14.00;99.90
19586;DHT22;9939;49.246;9.106;2023-04-24T13:31:51;13.70;99.90
19586;DHT22;9939;49.246;9.106;2023-04-24T13:34:38;13.80;99.90
19586;DHT22;9939;49.246;9.106;2023-04-24T13:37:26;17.50;99.90
19586;DHT22;9939;49.246;9.106;2023-04-24T13:40:13;20.70;99.90
19586;DHT22;9939;49.246;9.106;2023-04-24T13:43:01;22.80;99.90
19586;DHT22;9939;49.246;9.106;2023-04-24T13:45:48;22.40;99.90
19586;DHT22;9939;49.246;9.106;2023-04-24T13:48:36;23.30;99.90
19586;DHT22;9939;49.246;9.106;2023-04-24T13:51:25;23.20;99.90
19586;DHT22;9939;49.246;9.106;2023-04-24T13:54:14;22.70;99.90
19586;DHT22;9939;49.246;9.106;2023-04-24T13:57:01;22.90;99.90
19586;DHT22;9939;49.246;9.106;2023-04-24T13:59:50;23.80;99.90
19586;DHT22;9939;49.246;9.106;2023-04-24T14:02:37;25.00;96.90
19586;DHT22;9939;49.246;9.106;2023-04-24T14:05:25;22.30;98.20
19586;DHT22;9939;49.246;9.106;2023-04-24T14:08:12;20.40;99.90
19586;DHT22;9939;49.246;9.106;2023-04-24T14:10:59;20.80;99.90
19586;DHT22;9939;49.246;9.106;2023-04-24T14:13:50;22.10;98.70
19586;DHT22;9939;49.246;9.106;2023-04-24T14:16:38;20.80;99.80
19586;DHT22;9939;49.246;9.106;2023-04-24T14:19:25;19.70;99.90
19586;DHT22;9939;49.246;9.106;2023-04-24T14:22:13;18.50;99.90
19586;DHT22;9939;49.246;9.106;2023-04-24T14:25:00;21.00;99.90
19586;DHT22;9939;49.246;9.106;2023-04-24T14:27:48;21.40;99.90
19586;DHT22;9939;49.246;9.106;2023-04-24T14:30:35;19.40;99.90
19586;DHT22;9939;49.246;9.106;2023-04-24T14:33:24;17.60;99.90
19586;DHT22;9939;49.246;9.106;2023-04-24T14:36:11;16.00;99.90
19586;DHT22;9939;49.246;9.106;2023-04-24T14:38:59;15.10;99.90
19586;DHT22;9939;49.246;9.106;2023-04-24T14:41:46;14.50;99.90
19586;DHT22;9939;49.246;9.106;2023-04-24T14:44:33;14.50;99.90
19586;DHT22;9939;49.246;9.106;2023-04-24T14:47:21;15.00;99.90
19586;DHT22;9939;49.246;9.106;2023-04-24T14:50:08;14.70;99.90
19586;DHT22;9939;49.246;9.106;2023-04-24T14:52:56;14.20;99.90
19586;DHT22;9939;49.246;9.106;2023-04-24T14:55:49;14.20;99.90
19586;DHT22;9939;49.246;9.106;2023-04-24T14:58:36;14.10;99.90
19586;DHT22;9939;49.246;9.106;2023-04-24T15:01:23;14.00;99.90
19586;DHT22;9939;49.246;9.106;2023-04-24T15:04:11;14.10;99.90
19586;DHT22;9939;49.246;9.106;2023-04-24T15:06:59;14.00;99.90
19586;DHT22;9939;49.246;9.106;2023-04-24T15:09:46;14.00;99.90
19586;DHT22;9939;49.246;9.106;2023-04-24T15:12:34;14.40;99.90
19586;DHT22;9939;49.246;9.106;2023-04-24T15:15:22;14.40;99.90
19586;DHT22;9939;49.246;9.106;2023-04-24T15:18:09;13.90;99.90
19586;DHT22;9939;49.246;9.106;2023-04-24T15:20:58;14.00;99.90
19586;DHT22;9939;49.246;9.106;2023-04-24T15:23:46;14.00;99.90
19586;DHT22;9939;49.246;9.106;2023-04-24T15:26:34;13.80;99.90
19586;DHT22;9939;49.246;9.106;2023-04-24T15:29:21;13.50;99.90
19586;DHT22;9939;49.246;9.106;2023-04-24T15:32:08;13.20;99.90
19586;DHT22;9939;49.246;9.106;2023-04-24T15:34:56;13.10;99.90
19586;DHT22;9939;49.246;9.106;2023-04-24T15:37:55;13.10;99.90
19586;DHT22;9939;49.246;9.106;2023-04-24T15:40:42;13.10;99.90
19586;DHT22;9939;49.246;9.106;2023-04-24T15:43:31;13.30;99.90
19586;DHT22;9939;49.246;9.106;2023-04-24T15:46:21;13.10;99.90
19586;DHT22;9939;49.246;9.106;2023-04-24T15:49:08;13.10;99.90
19586;DHT22;9939;49.246;9.106;2023-04-24T15:51:56;13.40;99.90
19586;DHT22;9939;49.246;9.106;2023-04-24T15:54:43;13.50;99.90
19586;DHT22;9939;49.246;9.106;2023-04-24T15:57:30;13.50;99.90
19586;DHT22;9939;49.246;9.106;2023-04-24T16:00:18;13.60;99.90
19586;DHT22;9939;49.246;9.106;2023-04-24T16:03:06;13.60;99.90
19586;DHT22;9939;49.246;9.106;2023-04-24T16:05:56;13.40;99.90
19586;DHT22;9939;49.246;9.106;2023-04-24T16:08:44;13.10;99.90
19586;DHT22;9939;49.246;9.106;2023-04-24T16:11:32;13.00;99.90
19586;DHT22;9939;49.246;9.106;2023-04-24T16:14:23;13.00;99.90
19586;DHT22;9939;49.246;9.106;2023-04-24T16:17:10;13.10;99.90
19586;DHT22;9939;49.246;9.106;2023-04-24T16:19:58;13.30;99.90
19586;DHT22;9939;49.246;9.106;2023-04-24T16:22:45;13.50;99.90
19586;DHT22;9939;49.246;9.106;2023-04-24T16:25:32;14.30;99.90
19586;DHT22;9939;49.246;9.106;2023-04-24T16:28:20;14.30;99.90
19586;DHT22;9939;49.246;9.106;2023-04-24T16:31:08;14.20;99.90
19586;DHT22;9939;49.246;9.106;2023-04-24T16:33:56;13.80;99.90
19586;DHT22;9939;49.246;9.106;2023-04-24T16:36:44;13.40;99.90
19586;DHT22;9939;49.246;9.106;2023-04-24T16:39:31;13.20;99.90
19586;DHT22;9939;49.246;9.106;2023-04-24T16:42:19;13.00;99.90
19586;DHT22;9939;49.246;9.106;2023-04-24T16:45:06;12.60;99.90
19586;DHT22;9939;49.246;9.106;2023-04-24T16:47:54;12.50;99.90
19586;DHT22;9939;49.246;9.106;2023-04-24T16:50:41;12.30;99.90
19586;DHT22;9939;49.246;9.106;2023-04-24T16:53:29;12.90;99.90
19586;DHT22;9939;49.246;9.106;2023-04-24T16:56:16;15.40;99.90
19586;DHT22;9939;49.246;9.106;2023-04-24T16:59:03;15.50;99.90
19586;DHT22;9939;49.246;9.106;2023-04-24T17:01:51;15.20;99.90
19586;DHT22;9939;49.246;9.106;2023-04-24T17:04:38;15.50;99.90
19586;DHT22;9939;49.246;9.106;2023-04-24T17:07:25;15.60;99.90
19586;DHT22;9939;49.246;9.106;2023-04-24T17:10:13;16.10;99.90
19586;DHT22;9939;49.246;9.106;2023-04-24T17:13:00;16.80;99.90
19586;DHT22;9939;49.246;9.106;2023-04-24T17:15:48;17.20;99.90
19586;DHT22;9939;49.246;9.106;2023-04-24T17:18:35;15.90;99.90
19586;DHT22;9939;49.246;9.106;2023-04-24T17:21:22;15.30;99.90
19586;DHT22;9939;49.246;9.106;2023-04-24T17:24:10;13.90;99.90
19586;DHT22;9939;49.246;9.106;2023-04-24T17:26:57;12.90;99.90
19586;DHT22;9939;49.246;9.106;2023-04-24T17:30:00;12.20;99.90
19586;DHT22;9939;49.246;9.106;2023-04-24T17:32:47;11.80;99.90
19586;DHT22;9939;49.246;9.106;2023-04-24T17:35:35;11.70;99.90
19586;DHT22;9939;49.246;9.106;2023-04-24T17:38:22;11.40;99.90
19586;DHT22;9939;49.246;9.106;2023-04-24T17:41:10;10.20;99.90
19586;DHT22;9939;49.246;9.106;2023-04-24T17:43:57;11.20;99.90
19586;DHT22;9939;49.246;9.106;2023-04-24T17:46:45;10.50;99.90
19586;DHT22;9939;49.246;9.106;2023-04-24T17:49:32;11.00;99.90
19586;DHT22;9939;49.246;9.106;2023-04-24T17:52:20;11.00;99.90
19586;DHT22;9939;49.246;9.106;2023-04-24T17:55:07;10.90;99.90
19586;DHT22;9939;49.246;9.106;2023-04-24T17:57:54;10.90;99.90
19586;DHT22;9939;49.246;9.106;2023-04-24T18:00:42;11.00;99.90
19586;DHT22;9939;49.246;9.106;2023-04-24T18:03:29;10.90;99.90
19586;DHT22;9939;49.246;9.106;2023-04-24T18:06:17;10.60;99.90
19586;DHT22;9939;49.246;9.106;2023-04-24T18:09:05;10.20;99.90
19586;DHT22;9939;49.246;9.106;2023-04-24T18:11:52;9.70;99.90
19586;DHT22;9939;49.246;9.106;2023-04-24T18:14:39;9.40;99.90